Aaron, Kentucky
Current Conditions -  °F | °C
As of 8:56 AM on Saturday 25 Oct 2014 (Local Time) from KEKQ Reporting Station
Haze Haze  
Wind Chill: 55°   Ceiling: Unl
Heat Index: 55°   Visibility: 5mi
Dew Point: 49°   Wind: 5mph
Humidity: 80%   Direction: 260°W
Pressure: 30.11"   Gusts: NA
Location:  36.6815°N, 85.1287°W
Report Text: KEKQ 251356Z AUTO 26004KT 5SM HZ CLR 13/09 A3011 RMK AO2 T01270094 SLP205
Loading
Personal Weather Stations






























Interactive Weather Map New forecast layout! Learn more

10-Day Weather Forecast

Advertisements
Track Severe Weather on mobile